sensor_id;sensor_type;location;lat;lon;timestamp;P1;durP1;ratioP1;P2;durP2;ratioP2
11931;SDS011;6025;51.368;6.788;2022-09-09T00:03:04;2.95;;;1.30;;
11931;SDS011;6025;51.368;6.788;2022-09-09T00:08:02;3.28;;;1.20;;
11931;SDS011;6025;51.368;6.788;2022-09-09T00:12:59;3.67;;;1.40;;
11931;SDS011;6025;51.368;6.788;2022-09-09T00:17:55;4.07;;;1.38;;
11931;SDS011;6025;51.368;6.788;2022-09-09T00:22:50;3.38;;;1.80;;
11931;SDS011;6025;51.368;6.788;2022-09-09T00:27:48;3.60;;;1.67;;
11931;SDS011;6025;51.368;6.788;2022-09-09T00:32:42;3.40;;;1.67;;
11931;SDS011;6025;51.368;6.788;2022-09-09T00:37:34;3.20;;;1.50;;
11931;SDS011;6025;51.368;6.788;2022-09-09T00:42:26;2.90;;;1.75;;
11931;SDS011;6025;51.368;6.788;2022-09-09T00:47:31;3.75;;;1.50;;
11931;SDS011;6025;51.368;6.788;2022-09-09T00:52:34;5.28;;;1.60;;
11931;SDS011;6025;51.368;6.788;2022-09-09T00:57:29;4.75;;;1.65;;
11931;SDS011;6025;51.368;6.788;2022-09-09T01:02:26;3.95;;;1.48;;
11931;SDS011;6025;51.368;6.788;2022-09-09T01:07:19;4.30;;;1.65;;
11931;SDS011;6025;51.368;6.788;2022-09-09T01:12:14;6.88;;;1.60;;
11931;SDS011;6025;51.368;6.788;2022-09-09T01:17:09;4.05;;;1.73;;
11931;SDS011;6025;51.368;6.788;2022-09-09T01:22:06;5.55;;;1.40;;
11931;SDS011;6025;51.368;6.788;2022-09-09T01:27:03;3.22;;;1.67;;
11931;SDS011;6025;51.368;6.788;2022-09-09T01:31:56;5.07;;;1.58;;
11931;SDS011;6025;51.368;6.788;2022-09-09T01:36:49;2.53;;;1.60;;
11931;SDS011;6025;51.368;6.788;2022-09-09T01:41:44;3.75;;;1.60;;
11931;SDS011;6025;51.368;6.788;2022-09-09T01:46:37;3.00;;;1.70;;
11931;SDS011;6025;51.368;6.788;2022-09-09T01:51:29;3.45;;;1.90;;
11931;SDS011;6025;51.368;6.788;2022-09-09T01:56:23;4.97;;;1.85;;
11931;SDS011;6025;51.368;6.788;2022-09-09T02:01:24;4.65;;;1.88;;
11931;SDS011;6025;51.368;6.788;2022-09-09T02:06:24;4.75;;;1.80;;
11931;SDS011;6025;51.368;6.788;2022-09-09T02:11:19;4.18;;;1.95;;
11931;SDS011;6025;51.368;6.788;2022-09-09T02:16:12;4.35;;;2.00;;
11931;SDS011;6025;51.368;6.788;2022-09-09T02:21:05;3.42;;;1.80;;
11931;SDS011;6025;51.368;6.788;2022-09-09T02:25:59;6.20;;;2.40;;
11931;SDS011;6025;51.368;6.788;2022-09-09T02:30:52;4.43;;;2.05;;
11931;SDS011;6025;51.368;6.788;2022-09-09T02:35:45;3.78;;;1.95;;
11931;SDS011;6025;51.368;6.788;2022-09-09T02:40:37;5.78;;;2.22;;
11931;SDS011;6025;51.368;6.788;2022-09-09T02:45:31;6.63;;;2.20;;
11931;SDS011;6025;51.368;6.788;2022-09-09T02:50:26;6.82;;;2.30;;
11931;SDS011;6025;51.368;6.788;2022-09-09T02:55:23;5.15;;;2.55;;
11931;SDS011;6025;51.368;6.788;2022-09-09T03:00:24;7.47;;;2.60;;
11931;SDS011;6025;51.368;6.788;2022-09-09T03:05:17;5.57;;;2.72;;
11931;SDS011;6025;51.368;6.788;2022-09-09T03:10:09;9.20;;;2.10;;
11931;SDS011;6025;51.368;6.788;2022-09-09T03:15:00;3.17;;;2.33;;
11931;SDS011;6025;51.368;6.788;2022-09-09T03:19:52;7.65;;;2.42;;
11931;SDS011;6025;51.368;6.788;2022-09-09T03:24:45;5.13;;;2.58;;
11931;SDS011;6025;51.368;6.788;2022-09-09T03:29:37;5.70;;;2.40;;
11931;SDS011;6025;51.368;6.788;2022-09-09T03:34:29;9.57;;;2.42;;
11931;SDS011;6025;51.368;6.788;2022-09-09T03:39:20;5.80;;;2.47;;
11931;SDS011;6025;51.368;6.788;2022-09-09T03:44:13;8.25;;;2.40;;
11931;SDS011;6025;51.368;6.788;2022-09-09T03:49:05;7.55;;;2.60;;
11931;SDS011;6025;51.368;6.788;2022-09-09T03:53:57;5.15;;;2.53;;
11931;SDS011;6025;51.368;6.788;2022-09-09T03:58:48;6.47;;;2.25;;
11931;SDS011;6025;51.368;6.788;2022-09-09T04:03:41;4.63;;;2.30;;
11931;SDS011;6025;51.368;6.788;2022-09-09T04:08:33;6.70;;;2.78;;
11931;SDS011;6025;51.368;6.788;2022-09-09T04:13:25;5.97;;;2.35;;
11931;SDS011;6025;51.368;6.788;2022-09-09T04:18:17;7.40;;;2.03;;
11931;SDS011;6025;51.368;6.788;2022-09-09T04:23:10;5.85;;;2.55;;
11931;SDS011;6025;51.368;6.788;2022-09-09T04:28:02;5.88;;;2.33;;
11931;SDS011;6025;51.368;6.788;2022-09-09T04:32:53;5.88;;;2.50;;
11931;SDS011;6025;51.368;6.788;2022-09-09T04:37:45;7.82;;;2.53;;
11931;SDS011;6025;51.368;6.788;2022-09-09T04:42:38;5.55;;;2.55;;
11931;SDS011;6025;51.368;6.788;2022-09-09T04:47:33;5.35;;;2.40;;
11931;SDS011;6025;51.368;6.788;2022-09-09T04:52:25;5.72;;;2.17;;
11931;SDS011;6025;51.368;6.788;2022-09-09T04:57:17;6.57;;;2.50;;
11931;SDS011;6025;51.368;6.788;2022-09-09T05:02:10;10.50;;;2.80;;
11931;SDS011;6025;51.368;6.788;2022-09-09T05:07:02;9.75;;;2.60;;
11931;SDS011;6025;51.368;6.788;2022-09-09T05:11:53;7.25;;;2.88;;
11931;SDS011;6025;51.368;6.788;2022-09-09T05:16:45;5.07;;;2.92;;
11931;SDS011;6025;51.368;6.788;2022-09-09T05:21:39;8.60;;;2.90;;
11931;SDS011;6025;51.368;6.788;2022-09-09T05:26:31;7.18;;;2.70;;
11931;SDS011;6025;51.368;6.788;2022-09-09T05:31:23;8.50;;;2.72;;
11931;SDS011;6025;51.368;6.788;2022-09-09T05:36:18;7.10;;;2.83;;
11931;SDS011;6025;51.368;6.788;2022-09-09T05:41:12;5.45;;;2.55;;
11931;SDS011;6025;51.368;6.788;2022-09-09T05:46:06;7.90;;;2.70;;
11931;SDS011;6025;51.368;6.788;2022-09-09T05:50:58;6.85;;;2.45;;
11931;SDS011;6025;51.368;6.788;2022-09-09T05:55:50;10.93;;;2.70;;
11931;SDS011;6025;51.368;6.788;2022-09-09T06:00:50;9.10;;;2.70;;
11931;SDS011;6025;51.368;6.788;2022-09-09T06:05:41;7.60;;;2.72;;
11931;SDS011;6025;51.368;6.788;2022-09-09T06:10:33;4.78;;;2.25;;
11931;SDS011;6025;51.368;6.788;2022-09-09T06:15:24;8.13;;;2.60;;
11931;SDS011;6025;51.368;6.788;2022-09-09T06:20:18;8.30;;;2.90;;
11931;SDS011;6025;51.368;6.788;2022-09-09T06:25:10;7.72;;;2.60;;
11931;SDS011;6025;51.368;6.788;2022-09-09T06:30:02;9.48;;;2.75;;
11931;SDS011;6025;51.368;6.788;2022-09-09T06:34:54;5.30;;;2.38;;
11931;SDS011;6025;51.368;6.788;2022-09-09T06:39:47;9.40;;;2.83;;
11931;SDS011;6025;51.368;6.788;2022-09-09T06:44:39;8.23;;;2.97;;
11931;SDS011;6025;51.368;6.788;2022-09-09T06:49:30;11.70;;;2.42;;
11931;SDS011;6025;51.368;6.788;2022-09-09T06:54:22;5.20;;;2.13;;
11931;SDS011;6025;51.368;6.788;2022-09-09T06:59:15;6.97;;;2.65;;
11931;SDS011;6025;51.368;6.788;2022-09-09T07:04:06;5.55;;;2.10;;
11931;SDS011;6025;51.368;6.788;2022-09-09T07:08:59;8.25;;;2.17;;
11931;SDS011;6025;51.368;6.788;2022-09-09T07:13:54;8.90;;;2.30;;
11931;SDS011;6025;51.368;6.788;2022-09-09T07:18:46;5.07;;;1.90;;
11931;SDS011;6025;51.368;6.788;2022-09-09T07:23:40;8.20;;;2.03;;
11931;SDS011;6025;51.368;6.788;2022-09-09T07:28:32;6.80;;;1.95;;
11931;SDS011;6025;51.368;6.788;2022-09-09T07:33:24;8.93;;;2.28;;
11931;SDS011;6025;51.368;6.788;2022-09-09T07:38:18;8.00;;;1.70;;
11931;SDS011;6025;51.368;6.788;2022-09-09T07:43:09;7.00;;;1.80;;
11931;SDS011;6025;51.368;6.788;2022-09-09T07:48:01;10.02;;;2.20;;
11931;SDS011;6025;51.368;6.788;2022-09-09T07:52:53;6.22;;;1.60;;
11931;SDS011;6025;51.368;6.788;2022-09-09T07:57:46;4.40;;;1.70;;
11931;SDS011;6025;51.368;6.788;2022-09-09T08:02:37;6.78;;;1.70;;
11931;SDS011;6025;51.368;6.788;2022-09-09T08:07:29;3.10;;;1.13;;
11931;SDS011;6025;51.368;6.788;2022-09-09T08:12:21;7.20;;;1.50;;
11931;SDS011;6025;51.368;6.788;2022-09-09T08:17:14;6.97;;;1.65;;
11931;SDS011;6025;51.368;6.788;2022-09-09T08:22:05;4.70;;;1.50;;
11931;SDS011;6025;51.368;6.788;2022-09-09T08:26:57;7.35;;;1.50;;
11931;SDS011;6025;51.368;6.788;2022-09-09T08:31:50;4.90;;;1.48;;
11931;SDS011;6025;51.368;6.788;2022-09-09T08:36:44;3.40;;;1.42;;
11931;SDS011;6025;51.368;6.788;2022-09-09T08:41:41;5.10;;;1.40;;
11931;SDS011;6025;51.368;6.788;2022-09-09T08:46:44;4.57;;;1.15;;
11931;SDS011;6025;51.368;6.788;2022-09-09T08:51:39;6.80;;;1.50;;
11931;SDS011;6025;51.368;6.788;2022-09-09T08:56:33;3.55;;;1.38;;
11931;SDS011;6025;51.368;6.788;2022-09-09T09:06:47;6.13;;;1.50;;
11931;SDS011;6025;51.368;6.788;2022-09-09T09:11:44;4.20;;;1.30;;
11931;SDS011;6025;51.368;6.788;2022-09-09T09:16:39;5.60;;;1.08;;
11931;SDS011;6025;51.368;6.788;2022-09-09T09:21:34;4.38;;;1.50;;
11931;SDS011;6025;51.368;6.788;2022-09-09T09:26:30;3.10;;;1.60;;
11931;SDS011;6025;51.368;6.788;2022-09-09T09:31:24;3.88;;;1.25;;
11931;SDS011;6025;51.368;6.788;2022-09-09T09:36:16;3.80;;;1.40;;
11931;SDS011;6025;51.368;6.788;2022-09-09T09:41:08;6.18;;;1.50;;
11931;SDS011;6025;51.368;6.788;2022-09-09T09:46:00;3.97;;;1.50;;
11931;SDS011;6025;51.368;6.788;2022-09-09T09:50:54;9.48;;;1.40;;
11931;SDS011;6025;51.368;6.788;2022-09-09T09:55:49;3.97;;;1.42;;
11931;SDS011;6025;51.368;6.788;2022-09-09T10:00:47;2.88;;;1.30;;
11931;SDS011;6025;51.368;6.788;2022-09-09T10:05:44;6.43;;;1.45;;
11931;SDS011;6025;51.368;6.788;2022-09-09T10:10:40;4.07;;;1.00;;
11931;SDS011;6025;51.368;6.788;2022-09-09T10:15:39;2.22;;;0.80;;
11931;SDS011;6025;51.368;6.788;2022-09-09T10:20:35;3.25;;;1.10;;
11931;SDS011;6025;51.368;6.788;2022-09-09T10:25:40;5.85;;;1.10;;
11931;SDS011;6025;51.368;6.788;2022-09-09T10:30:48;2.95;;;1.08;;
11931;SDS011;6025;51.368;6.788;2022-09-09T10:35:43;2.35;;;0.93;;
11931;SDS011;6025;51.368;6.788;2022-09-09T10:40:41;6.55;;;1.02;;
11931;SDS011;6025;51.368;6.788;2022-09-09T10:45:37;3.00;;;1.25;;
11931;SDS011;6025;51.368;6.788;2022-09-09T10:50:49;2.58;;;1.17;;
11931;SDS011;6025;51.368;6.788;2022-09-09T10:55:48;3.35;;;1.08;;
11931;SDS011;6025;51.368;6.788;2022-09-09T11:00:43;3.35;;;1.10;;
11931;SDS011;6025;51.368;6.788;2022-09-09T11:05:39;3.05;;;0.95;;
11931;SDS011;6025;51.368;6.788;2022-09-09T11:10:34;4.13;;;1.20;;
11931;SDS011;6025;51.368;6.788;2022-09-09T11:15:35;4.68;;;0.98;;
11931;SDS011;6025;51.368;6.788;2022-09-09T11:20:27;6.25;;;1.40;;
11931;SDS011;6025;51.368;6.788;2022-09-09T11:25:20;3.67;;;1.10;;
11931;SDS011;6025;51.368;6.788;2022-09-09T11:30:18;4.32;;;1.25;;
11931;SDS011;6025;51.368;6.788;2022-09-09T11:35:18;4.47;;;0.90;;
11931;SDS011;6025;51.368;6.788;2022-09-09T11:40:19;2.78;;;1.00;;
11931;SDS011;6025;51.368;6.788;2022-09-09T11:45:19;3.65;;;1.05;;
11931;SDS011;6025;51.368;6.788;2022-09-09T11:50:27;1.92;;;1.02;;
11931;SDS011;6025;51.368;6.788;2022-09-09T11:55:25;4.13;;;0.93;;
11931;SDS011;6025;51.368;6.788;2022-09-09T12:00:32;3.75;;;0.93;;
11931;SDS011;6025;51.368;6.788;2022-09-09T12:05:36;3.10;;;1.05;;
11931;SDS011;6025;51.368;6.788;2022-09-09T12:10:29;5.72;;;1.20;;
11931;SDS011;6025;51.368;6.788;2022-09-09T12:15:24;2.85;;;0.93;;
11931;SDS011;6025;51.368;6.788;2022-09-09T12:20:19;5.85;;;1.48;;
11931;SDS011;6025;51.368;6.788;2022-09-09T12:25:18;5.38;;;1.20;;
11931;SDS011;6025;51.368;6.788;2022-09-09T12:30:14;2.33;;;0.80;;
11931;SDS011;6025;51.368;6.788;2022-09-09T12:35:09;2.97;;;0.93;;
11931;SDS011;6025;51.368;6.788;2022-09-09T12:40:03;3.85;;;1.10;;
11931;SDS011;6025;51.368;6.788;2022-09-09T12:44:58;5.28;;;1.40;;
11931;SDS011;6025;51.368;6.788;2022-09-09T12:49:51;4.57;;;0.90;;
11931;SDS011;6025;51.368;6.788;2022-09-09T12:54:43;3.40;;;1.17;;
11931;SDS011;6025;51.368;6.788;2022-09-09T12:59:37;2.15;;;1.08;;
11931;SDS011;6025;51.368;6.788;2022-09-09T13:04:31;5.05;;;1.40;;
11931;SDS011;6025;51.368;6.788;2022-09-09T13:09:23;4.38;;;1.60;;
11931;SDS011;6025;51.368;6.788;2022-09-09T13:14:15;4.85;;;1.65;;
11931;SDS011;6025;51.368;6.788;2022-09-09T13:19:09;4.60;;;1.42;;
11931;SDS011;6025;51.368;6.788;2022-09-09T13:24:19;2.78;;;1.00;;
11931;SDS011;6025;51.368;6.788;2022-09-09T13:29:17;2.03;;;1.08;;
11931;SDS011;6025;51.368;6.788;2022-09-09T13:34:13;2.13;;;1.00;;
11931;SDS011;6025;51.368;6.788;2022-09-09T13:39:13;2.95;;;1.20;;
11931;SDS011;6025;51.368;6.788;2022-09-09T13:44:06;3.75;;;1.10;;
11931;SDS011;6025;51.368;6.788;2022-09-09T13:49:18;3.55;;;1.00;;
11931;SDS011;6025;51.368;6.788;2022-09-09T13:54:13;1.45;;;0.95;;
11931;SDS011;6025;51.368;6.788;2022-09-09T13:59:08;3.03;;;1.30;;
11931;SDS011;6025;51.368;6.788;2022-09-09T14:04:02;2.35;;;1.15;;
11931;SDS011;6025;51.368;6.788;2022-09-09T14:08:53;3.17;;;1.20;;
11931;SDS011;6025;51.368;6.788;2022-09-09T14:13:46;2.53;;;0.90;;
11931;SDS011;6025;51.368;6.788;2022-09-09T14:18:39;3.30;;;0.80;;
11931;SDS011;6025;51.368;6.788;2022-09-09T14:23:31;2.28;;;0.93;;
11931;SDS011;6025;51.368;6.788;2022-09-09T14:28:22;4.70;;;1.35;;
11931;SDS011;6025;51.368;6.788;2022-09-09T14:33:16;4.10;;;1.20;;
11931;SDS011;6025;51.368;6.788;2022-09-09T14:38:08;6.28;;;1.30;;
11931;SDS011;6025;51.368;6.788;2022-09-09T14:43:00;2.38;;;0.70;;
11931;SDS011;6025;51.368;6.788;2022-09-09T14:47:52;1.70;;;0.75;;
11931;SDS011;6025;51.368;6.788;2022-09-09T14:52:45;1.92;;;0.60;;
11931;SDS011;6025;51.368;6.788;2022-09-09T14:57:37;1.92;;;0.88;;
11931;SDS011;6025;51.368;6.788;2022-09-09T15:02:30;2.55;;;1.10;;
11931;SDS011;6025;51.368;6.788;2022-09-09T15:07:21;2.03;;;0.70;;
11931;SDS011;6025;51.368;6.788;2022-09-09T15:12:14;2.30;;;0.90;;
11931;SDS011;6025;51.368;6.788;2022-09-09T15:17:08;1.23;;;0.82;;
11931;SDS011;6025;51.368;6.788;2022-09-09T15:22:00;1.67;;;0.90;;
11931;SDS011;6025;51.368;6.788;2022-09-09T15:26:51;3.28;;;1.10;;
11931;SDS011;6025;51.368;6.788;2022-09-09T15:31:45;2.38;;;0.93;;
11931;SDS011;6025;51.368;6.788;2022-09-09T15:36:37;1.92;;;0.95;;
11931;SDS011;6025;51.368;6.788;2022-09-09T15:41:30;1.60;;;0.60;;
11931;SDS011;6025;51.368;6.788;2022-09-09T15:46:23;4.30;;;0.90;;
11931;SDS011;6025;51.368;6.788;2022-09-09T15:51:18;1.63;;;0.70;;
11931;SDS011;6025;51.368;6.788;2022-09-09T15:56:10;1.48;;;0.60;;
11931;SDS011;6025;51.368;6.788;2022-09-09T16:01:02;2.53;;;1.10;;
11931;SDS011;6025;51.368;6.788;2022-09-09T16:05:54;2.03;;;0.80;;
11931;SDS011;6025;51.368;6.788;2022-09-09T16:10:47;1.75;;;0.85;;
11931;SDS011;6025;51.368;6.788;2022-09-09T16:15:39;4.85;;;1.00;;
11931;SDS011;6025;51.368;6.788;2022-09-09T16:20:30;1.65;;;0.90;;
11931;SDS011;6025;51.368;6.788;2022-09-09T16:25:22;1.58;;;1.10;;
11931;SDS011;6025;51.368;6.788;2022-09-09T16:30:15;2.63;;;1.10;;
11931;SDS011;6025;51.368;6.788;2022-09-09T16:35:06;2.78;;;1.30;;
11931;SDS011;6025;51.368;6.788;2022-09-09T16:39:58;3.10;;;1.20;;
11931;SDS011;6025;51.368;6.788;2022-09-09T16:44:49;4.75;;;1.70;;
11931;SDS011;6025;51.368;6.788;2022-09-09T16:49:42;3.65;;;1.40;;
11931;SDS011;6025;51.368;6.788;2022-09-09T16:54:34;6.07;;;1.80;;
11931;SDS011;6025;51.368;6.788;2022-09-09T16:59:25;3.95;;;1.73;;
11931;SDS011;6025;51.368;6.788;2022-09-09T17:04:18;4.80;;;1.90;;
11931;SDS011;6025;51.368;6.788;2022-09-09T17:09:12;2.70;;;1.60;;
11931;SDS011;6025;51.368;6.788;2022-09-09T17:14:04;3.38;;;1.70;;
11931;SDS011;6025;51.368;6.788;2022-09-09T17:18:57;3.08;;;1.45;;
11931;SDS011;6025;51.368;6.788;2022-09-09T17:23:51;2.90;;;1.67;;
11931;SDS011;6025;51.368;6.788;2022-09-09T17:28:45;5.95;;;1.67;;
11931;SDS011;6025;51.368;6.788;2022-09-09T17:33:37;2.45;;;1.50;;
11931;SDS011;6025;51.368;6.788;2022-09-09T17:38:30;4.13;;;1.70;;
11931;SDS011;6025;51.368;6.788;2022-09-09T17:43:21;4.22;;;1.50;;
11931;SDS011;6025;51.368;6.788;2022-09-09T17:48:14;4.03;;;1.67;;
11931;SDS011;6025;51.368;6.788;2022-09-09T17:53:06;5.15;;;1.80;;
11931;SDS011;6025;51.368;6.788;2022-09-09T17:57:57;5.28;;;1.73;;
11931;SDS011;6025;51.368;6.788;2022-09-09T18:02:49;3.55;;;1.88;;
11931;SDS011;6025;51.368;6.788;2022-09-09T18:07:42;3.67;;;1.73;;
11931;SDS011;6025;51.368;6.788;2022-09-09T18:12:33;5.32;;;1.98;;
11931;SDS011;6025;51.368;6.788;2022-09-09T18:17:25;3.88;;;1.90;;
11931;SDS011;6025;51.368;6.788;2022-09-09T18:22:17;5.10;;;2.00;;
11931;SDS011;6025;51.368;6.788;2022-09-09T18:27:10;4.15;;;2.00;;
11931;SDS011;6025;51.368;6.788;2022-09-09T18:32:01;7.65;;;2.40;;
11931;SDS011;6025;51.368;6.788;2022-09-09T18:36:53;5.25;;;2.22;;
11931;SDS011;6025;51.368;6.788;2022-09-09T18:41:46;3.83;;;2.22;;
11931;SDS011;6025;51.368;6.788;2022-09-09T18:46:39;4.72;;;2.42;;
11931;SDS011;6025;51.368;6.788;2022-09-09T18:51:31;4.15;;;2.45;;
11931;SDS011;6025;51.368;6.788;2022-09-09T18:56:24;4.65;;;2.15;;
11931;SDS011;6025;51.368;6.788;2022-09-09T19:01:15;4.63;;;2.30;;
11931;SDS011;6025;51.368;6.788;2022-09-09T19:06:09;3.60;;;1.70;;
11931;SDS011;6025;51.368;6.788;2022-09-09T19:11:01;4.32;;;2.00;;
11931;SDS011;6025;51.368;6.788;2022-09-09T19:15:54;4.10;;;1.70;;
11931;SDS011;6025;51.368;6.788;2022-09-09T19:20:45;3.92;;;1.50;;
11931;SDS011;6025;51.368;6.788;2022-09-09T19:25:38;3.38;;;1.60;;
11931;SDS011;6025;51.368;6.788;2022-09-09T19:30:29;2.33;;;1.60;;
11931;SDS011;6025;51.368;6.788;2022-09-09T19:35:21;4.13;;;1.80;;
11931;SDS011;6025;51.368;6.788;2022-09-09T19:40:13;4.10;;;1.90;;
11931;SDS011;6025;51.368;6.788;2022-09-09T19:45:07;4.70;;;1.88;;
11931;SDS011;6025;51.368;6.788;2022-09-09T19:49:59;3.88;;;1.50;;
11931;SDS011;6025;51.368;6.788;2022-09-09T19:54:54;3.70;;;1.73;;
11931;SDS011;6025;51.368;6.788;2022-09-09T19:59:46;5.00;;;1.75;;
11931;SDS011;6025;51.368;6.788;2022-09-09T20:04:40;4.32;;;1.80;;
11931;SDS011;6025;51.368;6.788;2022-09-09T20:09:32;6.00;;;2.17;;
11931;SDS011;6025;51.368;6.788;2022-09-09T20:14:23;5.32;;;1.95;;
11931;SDS011;6025;51.368;6.788;2022-09-09T20:19:15;4.50;;;1.83;;
11931;SDS011;6025;51.368;6.788;2022-09-09T20:24:10;4.38;;;1.60;;
11931;SDS011;6025;51.368;6.788;2022-09-09T20:29:04;5.05;;;1.88;;
11931;SDS011;6025;51.368;6.788;2022-09-09T20:33:57;3.35;;;1.50;;
11931;SDS011;6025;51.368;6.788;2022-09-09T20:38:49;2.58;;;1.30;;
11931;SDS011;6025;51.368;6.788;2022-09-09T20:43:45;3.63;;;1.67;;
11931;SDS011;6025;51.368;6.788;2022-09-09T20:48:38;3.15;;;1.35;;
11931;SDS011;6025;51.368;6.788;2022-09-09T20:53:31;2.65;;;1.48;;
11931;SDS011;6025;51.368;6.788;2022-09-09T20:58:23;3.20;;;1.48;;
11931;SDS011;6025;51.368;6.788;2022-09-09T21:03:16;1.77;;;1.45;;
11931;SDS011;6025;51.368;6.788;2022-09-09T21:08:08;3.78;;;1.30;;
11931;SDS011;6025;51.368;6.788;2022-09-09T21:12:59;5.40;;;1.80;;
11931;SDS011;6025;51.368;6.788;2022-09-09T21:17:52;3.55;;;1.73;;
11931;SDS011;6025;51.368;6.788;2022-09-09T21:22:45;5.90;;;2.05;;
11931;SDS011;6025;51.368;6.788;2022-09-09T21:27:37;5.10;;;2.17;;
11931;SDS011;6025;51.368;6.788;2022-09-09T21:32:28;8.60;;;2.33;;
11931;SDS011;6025;51.368;6.788;2022-09-09T21:37:20;4.68;;;2.05;;
11931;SDS011;6025;51.368;6.788;2022-09-09T21:42:13;5.68;;;2.50;;
11931;SDS011;6025;51.368;6.788;2022-09-09T21:47:04;5.03;;;2.42;;
11931;SDS011;6025;51.368;6.788;2022-09-09T21:51:56;6.57;;;2.20;;
11931;SDS011;6025;51.368;6.788;2022-09-09T21:56:48;5.07;;;2.20;;
11931;SDS011;6025;51.368;6.788;2022-09-09T22:01:42;4.40;;;2.00;;
11931;SDS011;6025;51.368;6.788;2022-09-09T22:06:33;5.47;;;2.28;;
11931;SDS011;6025;51.368;6.788;2022-09-09T22:11:25;5.38;;;1.95;;
11931;SDS011;6025;51.368;6.788;2022-09-09T22:16:17;6.40;;;1.90;;
11931;SDS011;6025;51.368;6.788;2022-09-09T22:21:12;5.55;;;2.10;;
11931;SDS011;6025;51.368;6.788;2022-09-09T22:26:05;4.93;;;2.17;;
11931;SDS011;6025;51.368;6.788;2022-09-09T22:30:57;5.43;;;2.00;;
11931;SDS011;6025;51.368;6.788;2022-09-09T22:35:49;5.00;;;2.22;;
11931;SDS011;6025;51.368;6.788;2022-09-09T22:40:42;4.43;;;2.05;;
11931;SDS011;6025;51.368;6.788;2022-09-09T22:45:33;3.90;;;1.80;;
11931;SDS011;6025;51.368;6.788;2022-09-09T22:50:26;6.57;;;2.30;;
11931;SDS011;6025;51.368;6.788;2022-09-09T22:55:18;6.80;;;2.10;;
11931;SDS011;6025;51.368;6.788;2022-09-09T23:00:11;6.03;;;2.33;;
11931;SDS011;6025;51.368;6.788;2022-09-09T23:05:04;7.78;;;2.20;;
11931;SDS011;6025;51.368;6.788;2022-09-09T23:09:57;6.75;;;2.10;;
11931;SDS011;6025;51.368;6.788;2022-09-09T23:14:49;4.35;;;1.95;;
11931;SDS011;6025;51.368;6.788;2022-09-09T23:19:42;5.32;;;2.00;;
11931;SDS011;6025;51.368;6.788;2022-09-09T23:24:34;5.30;;;2.10;;
11931;SDS011;6025;51.368;6.788;2022-09-09T23:29:26;2.33;;;1.60;;
11931;SDS011;6025;51.368;6.788;2022-09-09T23:34:18;5.85;;;1.88;;
11931;SDS011;6025;51.368;6.788;2022-09-09T23:39:11;5.10;;;2.17;;
11931;SDS011;6025;51.368;6.788;2022-09-09T23:44:03;8.15;;;2.22;;
11931;SDS011;6025;51.368;6.788;2022-09-09T23:48:55;5.35;;;1.92;;
11931;SDS011;6025;51.368;6.788;2022-09-09T23:53:47;3.60;;;1.52;;
11931;SDS011;6025;51.368;6.788;2022-09-09T23:58:41;4.75;;;1.58;;
